Hauptseite
METAR-TAF:

METAR-TAF

Flughäfen :

Zeltweg, Österreich

Fliegerhorst Hinterstoisser

Breite: 47-12N, Länge: 014-45E, Höhe: 677 m

Beobachtung

Neuester Wetterbericht von vor 55 Minuten, um 13:50 UTC
Wind 5 kt aus Süd/Südost
Temperatur 11°C
Luftfeuchtigkeit 58%
Luftdruck 1018 hPa

METAR: LOXZ 201350Z 15005KT 30KM FEW040SC BKN060SC BKN130AC 11/03 Q1018 NOSIG

Zeit: 16:45 (14:45 UTC)

Prognose

Neuester Wetterbericht von vor 3 Stunden und 30 Minuten, um 11:15 UTC
Gültige Prognose vom 20 um 12 UTC bis 20 um 21 UTC
Wind 3 kt aus unterschiedlichen Richtungen
Aufgelockert bewölkt in der Höhe von 4000 ft
Durchbrochene Bewölkung in der Höhe von 6000 ft
Zeitweise
vom 20 um 12 UTC bis 20 um 21 UTC
Wind 15 kt aus Nord, Böen bis zu 25 kt
Durchbrochene Bewölkung in der Höhe von 5000 ft

TAF: LOXZ 201115Z 2012/2021 VRB03KT 99999 SCT040 BKN060 TEMPO 2012/2021 36015G25KT BKN050

Wetterbeobachtungen und Prognosen von mehr als 4000 Flughäfen (METAR und TAF Bericht).

Die verfügbaren Stationen werden durch gelbe und rote Markierungen auf der Karte dargestellt.

Führen Sie die Maus auf sie, um den Namen der Station zu sehen.

Darauf klicken, um die Beobachtung von Wetterbeobachtungen und Prognosen zu sehen.

Um die Karte zu ändern : klicken Sie auf den grünen Tasten mit einem schwarzen Kreuz Zum Vergrößern, auf den grünen Button mit einem Gedankenstrich zu verkleinern, oder auf die grünen Pfeile für benachbarte Karten.


METAR-TAF: